logo
Search for airport 
image banner adimage banner adimage banner ad
image banner ad

SCAD - Grupo Tamarena

Located in Talagante, Chile

ICAO - SCAD, IATA -

Data provided by Airmate  

General information

Coordinates: S33°42'59" W70°58'34"
Elevation is 558 feet MSL.
 
View others Airports in Coquimbo

Operational data

Special qualification required
Current time UTC:
Current local time:
Weather at : SCEL - Arturo Merino Benitez ( 40 km )
METAR: SCEL 211400Z VRB02KT 7000 NSC 12/09 Q1016 NOSIG
TAF: TAF SCEL 211000Z 2112/2212 20004KT 9999 FEW040 BKN150 BKN180 TX18/2118Z TN08/2210Z BECMG 2114/2116 18008KT CAVOK BECMG 2117/2119 22013KT BECMG 2123/2201 20006KT SCT035 BKN160 BECMG 2206/2208 VRB02KT
View NOTAMs / SUP AIP / TFR affecting this airport [VIEW]
Communications frequencies: [VIEW]

Runways:

RWY identifierQFULength (ft)Width (ft)SurfaceLDA (ft)
0800UNK
2600UNK

Airport contact information

Address: Talagante Chile

Satellite view of SCAD